createdAt,value
2023-02-13T00:00:16.203Z,92.10
2023-02-13T00:02:42.934Z,91.90
2023-02-13T00:05:10.017Z,91.90
2023-02-13T00:07:36.751Z,92.30
2023-02-13T00:10:03.668Z,92.20
2023-02-13T00:12:30.534Z,92.20
2023-02-13T00:14:57.351Z,92.10
2023-02-13T00:17:24.699Z,92.10
2023-02-13T00:19:51.840Z,92.10
2023-02-13T00:22:18.591Z,92.20
2023-02-13T00:24:45.558Z,92.10
2023-02-13T00:27:12.398Z,92.30
2023-02-13T00:29:39.213Z,92.40
2023-02-13T00:32:06.143Z,92.10
2023-02-13T00:34:33.005Z,92.20
2023-02-13T00:36:59.756Z,92.20
2023-02-13T00:39:26.538Z,92.30
2023-02-13T00:41:53.400Z,92.60
2023-02-13T00:44:20.106Z,92.10
2023-02-13T00:46:46.949Z,92.30
2023-02-13T00:49:13.827Z,92.20
2023-02-13T00:51:40.612Z,92.40
2023-02-13T00:54:07.433Z,92.40
2023-02-13T00:56:34.437Z,92.40
2023-02-13T00:59:01.249Z,92.30
2023-02-13T01:01:28.056Z,92.60
2023-02-13T01:03:54.871Z,92.30
2023-02-13T01:06:21.705Z,92.60
2023-02-13T01:08:48.458Z,92.50
2023-02-13T01:11:15.227Z,92.50
2023-02-13T01:13:41.944Z,92.50
2023-02-13T01:16:08.770Z,92.50
2023-02-13T01:18:35.733Z,92.90
2023-02-13T01:21:04.136Z,92.80
2023-02-13T01:23:35.407Z,92.60
2023-02-13T01:26:03.962Z,92.80
2023-02-13T01:28:30.808Z,92.70
2023-02-13T01:30:58.273Z,92.70
2023-02-13T01:33:25.895Z,92.60
2023-02-13T01:36:03.125Z,92.70
2023-02-13T01:38:29.825Z,92.60
2023-02-13T01:40:56.849Z,92.70
2023-02-13T01:43:24.823Z,92.80
2023-02-13T01:45:55.181Z,92.50
2023-02-13T01:48:24.112Z,92.80
2023-02-13T01:50:50.994Z,92.60
2023-02-13T01:53:28.858Z,92.60
2023-02-13T01:55:59.360Z,92.80
2023-02-13T01:58:27.906Z,92.80
2023-02-13T02:00:55.002Z,92.80
2023-02-13T02:03:36.072Z,93.10
2023-02-13T02:06:03.303Z,92.90
2023-02-13T02:08:30.735Z,92.80
2023-02-13T02:11:01.473Z,92.70
2023-02-13T02:13:28.205Z,92.80
2023-02-13T02:15:54.995Z,92.80
2023-02-13T02:18:23.435Z,92.80
2023-02-13T02:20:52.940Z,93.00
2023-02-13T02:23:38.182Z,92.70
2023-02-13T02:26:13.780Z,92.60
2023-02-13T02:28:52.432Z,92.80
2023-02-13T02:31:28.005Z,92.80
2023-02-13T02:33:54.916Z,92.80
2023-02-13T02:36:24.423Z,93.00
2023-02-13T02:39:04.007Z,92.90
2023-02-13T02:41:45.150Z,92.80
2023-02-13T02:44:11.911Z,92.80
2023-02-13T02:47:09.732Z,92.80
2023-02-13T02:49:56.529Z,92.80
2023-02-13T02:52:27.658Z,92.80
2023-02-13T02:55:09.179Z,92.70
2023-02-13T02:57:58.258Z,92.90
2023-02-13T03:00:44.412Z,92.90
2023-02-13T03:03:40.557Z,92.90
2023-02-13T03:06:25.894Z,93.00
2023-02-13T03:09:13.126Z,93.00
2023-02-13T03:12:00.552Z,92.80
2023-02-13T03:14:28.285Z,92.90
2023-02-13T03:17:15.065Z,93.00
2023-02-13T03:20:06.401Z,93.00
2023-02-13T03:22:41.561Z,93.00
2023-02-13T03:25:08.295Z,92.90
2023-02-13T03:28:04.479Z,92.90
2023-02-13T03:30:31.258Z,93.00
2023-02-13T03:33:11.930Z,92.90
2023-02-13T03:36:05.702Z,93.10
2023-02-13T03:38:38.538Z,93.10
2023-02-13T03:41:19.882Z,93.00
2023-02-13T03:44:05.202Z,93.00
2023-02-13T03:46:34.518Z,92.90
2023-02-13T03:49:21.533Z,93.00
2023-02-13T03:51:54.503Z,93.00
2023-02-13T03:54:42.490Z,93.30
2023-02-13T03:57:29.229Z,93.00
2023-02-13T03:59:57.182Z,93.20
2023-02-13T04:02:28.879Z,93.00
2023-02-13T04:05:08.539Z,92.80
2023-02-13T04:07:35.630Z,93.20
2023-02-13T04:10:02.376Z,92.90
2023-02-13T04:12:41.992Z,93.10
2023-02-13T04:15:08.859Z,93.00
2023-02-13T04:17:47.050Z,93.10
2023-02-13T04:20:13.980Z,93.20
2023-02-13T04:22:44.821Z,93.10
2023-02-13T04:25:12.910Z,93.10
2023-02-13T04:27:39.708Z,93.20
2023-02-13T04:30:06.779Z,93.10
2023-02-13T04:32:33.682Z,93.10
2023-02-13T04:35:00.496Z,93.10
2023-02-13T04:37:27.233Z,93.50
2023-02-13T04:39:54.106Z,92.90
2023-02-13T04:42:20.851Z,92.90
2023-02-13T04:44:47.757Z,93.00
2023-02-13T04:47:14.602Z,93.10
2023-02-13T04:49:41.298Z,93.20
2023-02-13T04:52:08.048Z,92.90
2023-02-13T04:54:34.887Z,93.10
2023-02-13T04:57:01.634Z,93.10
2023-02-13T04:59:28.357Z,93.30
2023-02-13T05:01:55.167Z,93.20
2023-02-13T05:04:21.970Z,93.00
2023-02-13T05:06:48.786Z,92.90
2023-02-13T05:09:23.712Z,93.00
2023-02-13T05:11:52.976Z,92.80
2023-02-13T05:14:19.840Z,92.90
2023-02-13T05:16:47.387Z,92.90
2023-02-13T05:19:14.144Z,92.90
2023-02-13T05:21:59.458Z,93.00
2023-02-13T05:24:26.201Z,92.90
2023-02-13T05:26:52.926Z,93.20
2023-02-13T05:29:19.817Z,93.10
2023-02-13T05:31:47.073Z,93.20
2023-02-13T05:34:13.976Z,93.10
2023-02-13T05:36:40.795Z,93.00
2023-02-13T05:39:07.635Z,93.00
2023-02-13T05:41:34.441Z,93.10
2023-02-13T05:44:01.293Z,93.00
2023-02-13T05:46:28.189Z,93.00
2023-02-13T05:48:55.084Z,92.90
2023-02-13T05:51:22.096Z,93.00
2023-02-13T05:53:48.962Z,93.10
2023-02-13T05:56:15.759Z,93.00
2023-02-13T05:58:42.523Z,93.00
2023-02-13T06:01:09.287Z,93.30
2023-02-13T06:03:36.113Z,93.20
2023-02-13T06:06:03.006Z,93.10
2023-02-13T06:08:29.760Z,93.20
2023-02-13T06:10:56.488Z,93.20
2023-02-13T06:13:23.569Z,93.00
2023-02-13T06:15:50.970Z,92.90
2023-02-13T06:18:17.801Z,93.00
2023-02-13T06:20:44.617Z,93.10
2023-02-13T06:23:11.358Z,93.30
2023-02-13T06:25:38.392Z,93.00
2023-02-13T06:28:05.600Z,93.20
2023-02-13T06:30:32.935Z,93.00
2023-02-13T06:32:59.777Z,93.00
2023-02-13T06:35:27.140Z,93.00
2023-02-13T06:37:53.936Z,93.20
2023-02-13T06:40:20.760Z,93.00
2023-02-13T06:42:47.639Z,93.20
2023-02-13T06:45:14.902Z,93.20
2023-02-13T06:47:45.624Z,93.10
2023-02-13T06:50:13.302Z,93.20
2023-02-13T06:52:40.236Z,93.00
2023-02-13T06:55:07.212Z,93.20
2023-02-13T06:57:34.144Z,93.00
2023-02-13T07:00:03.646Z,93.00
2023-02-13T07:02:30.498Z,93.00
2023-02-13T07:04:57.353Z,93.00
2023-02-13T07:07:24.090Z,93.10
2023-02-13T07:09:50.939Z,92.80
2023-02-13T07:12:17.817Z,93.00
2023-02-13T07:14:44.575Z,92.90
2023-02-13T07:17:11.279Z,93.00
2023-02-13T07:19:38.088Z,93.00
2023-02-13T07:22:04.877Z,93.10
2023-02-13T07:24:33.732Z,93.10
2023-02-13T07:27:00.613Z,93.10
2023-02-13T07:29:27.806Z,93.20
2023-02-13T07:31:54.580Z,93.40
2023-02-13T07:34:21.506Z,93.40
2023-02-13T07:36:48.760Z,93.40
2023-02-13T07:39:15.584Z,93.10
2023-02-13T07:41:42.431Z,93.30
2023-02-13T07:44:09.251Z,93.30
2023-02-13T07:46:36.120Z,93.00
2023-02-13T07:49:02.998Z,93.00
2023-02-13T07:51:29.795Z,93.10
2023-02-13T07:53:57.325Z,93.30
2023-02-13T07:56:24.599Z,93.20
2023-02-13T07:58:51.338Z,93.30
2023-02-13T08:01:19.477Z,93.00
2023-02-13T08:03:52.810Z,93.10
2023-02-13T08:06:20.018Z,92.90
2023-02-13T08:08:47.058Z,93.20
2023-02-13T08:11:43.197Z,93.00
2023-02-13T08:14:10.015Z,92.90
2023-02-13T08:16:36.777Z,92.90
2023-02-13T08:19:03.950Z,93.00
2023-02-13T08:21:30.834Z,92.90
2023-02-13T08:23:57.683Z,93.10
2023-02-13T08:26:24.563Z,92.80
2023-02-13T08:28:51.273Z,93.00
2023-02-13T08:31:18.353Z,93.10
2023-02-13T08:33:45.395Z,93.00
2023-02-13T08:36:12.121Z,93.10
2023-02-13T08:41:10.754Z,93.10
2023-02-13T08:43:37.464Z,93.20
2023-02-13T08:46:04.324Z,93.00
2023-02-13T08:48:31.225Z,93.00
2023-02-13T08:50:57.954Z,93.10
2023-02-13T08:53:24.711Z,93.10
2023-02-13T08:55:52.480Z,93.60
2023-02-13T08:58:19.193Z,93.10
2023-02-13T09:00:45.932Z,93.30
2023-02-13T09:03:12.916Z,93.00
2023-02-13T09:05:39.684Z,92.40
2023-02-13T09:08:08.180Z,93.60
2023-02-13T09:10:35.063Z,94.10
2023-02-13T09:13:01.803Z,94.50
2023-02-13T09:15:28.546Z,94.60
2023-02-13T09:17:55.445Z,94.50
2023-02-13T09:20:24.459Z,94.40
2023-02-13T09:22:51.328Z,94.50
2023-02-13T09:25:20.338Z,94.10
2023-02-13T09:27:47.098Z,93.70
2023-02-13T09:30:22.823Z,94.10
2023-02-13T09:32:50.558Z,94.10
2023-02-13T09:35:17.821Z,94.20
2023-02-13T09:37:45.869Z,94.00
2023-02-13T09:40:21.170Z,93.80
2023-02-13T09:42:48.818Z,94.00
2023-02-13T09:45:17.348Z,93.40
2023-02-13T09:47:44.596Z,93.60
2023-02-13T09:50:14.248Z,93.40
2023-02-13T09:52:43.267Z,93.50
2023-02-13T09:55:17.811Z,93.60
2023-02-13T09:57:50.463Z,93.70
2023-02-13T10:00:23.065Z,93.80
2023-02-13T10:02:58.730Z,93.30
2023-02-13T10:05:34.532Z,93.10
2023-02-13T10:08:16.591Z,93.50
2023-02-13T10:10:51.049Z,93.50
2023-02-13T10:13:29.942Z,93.20
2023-02-13T10:15:57.912Z,93.30
2023-02-13T10:18:32.097Z,93.40
2023-02-13T10:21:02.414Z,93.30
2023-02-13T10:23:29.152Z,93.10
2023-02-13T10:25:59.109Z,93.10
2023-02-13T10:28:30.744Z,92.90
2023-02-13T10:30:59.875Z,92.90
2023-02-13T10:33:30.086Z,92.70
2023-02-13T10:36:06.982Z,92.70
2023-02-13T10:38:34.960Z,92.70
2023-02-13T10:41:37.253Z,93.00
2023-02-13T10:44:06.949Z,92.60
2023-02-13T10:46:40.331Z,92.80
2023-02-13T10:49:33.427Z,92.60
2023-02-13T10:52:05.855Z,92.50
2023-02-13T10:54:49.461Z,92.80
2023-02-13T10:57:39.479Z,92.80
2023-02-13T11:00:13.063Z,92.60
2023-02-13T11:02:41.471Z,92.70
2023-02-13T11:05:16.686Z,92.80
2023-02-13T11:07:44.673Z,92.90
2023-02-13T11:10:21.780Z,92.70
2023-02-13T11:12:49.019Z,92.50
2023-02-13T11:15:21.810Z,92.50
2023-02-13T11:17:49.477Z,92.70
2023-02-13T11:20:25.666Z,92.60
2023-02-13T11:22:52.826Z,92.50
2023-02-13T11:25:25.221Z,92.70
2023-02-13T11:27:56.339Z,92.70
2023-02-13T11:30:23.030Z,93.00
2023-02-13T11:33:00.391Z,92.60
2023-02-13T11:35:32.097Z,92.40
2023-02-13T11:38:10.889Z,92.40
2023-02-13T11:40:38.025Z,92.10
2023-02-13T11:43:08.440Z,91.90
2023-02-13T11:45:35.402Z,92.10
2023-02-13T11:48:08.778Z,92.10
2023-02-13T11:50:36.298Z,91.80
2023-02-13T11:53:16.891Z,92.20
2023-02-13T11:55:43.790Z,91.90
2023-02-13T11:58:10.596Z,92.00
2023-02-13T12:00:40.070Z,91.30
2023-02-13T12:03:22.254Z,91.10
2023-02-13T12:06:07.879Z,91.50
2023-02-13T12:08:36.886Z,91.80
2023-02-13T12:11:08.077Z,91.80
2023-02-13T12:13:39.140Z,91.80
2023-02-13T12:16:28.701Z,91.60
2023-02-13T12:18:57.237Z,92.00
2023-02-13T12:21:43.326Z,92.10
2023-02-13T12:24:13.066Z,92.20
2023-02-13T12:27:12.957Z,92.00
2023-02-13T12:29:42.857Z,91.00
2023-02-13T12:32:12.694Z,90.60
2023-02-13T12:34:42.052Z,91.50
2023-02-13T12:37:17.824Z,92.00
2023-02-13T12:40:06.742Z,91.80
2023-02-13T12:42:52.546Z,91.80
2023-02-13T12:45:35.902Z,91.80
2023-02-13T12:48:02.684Z,91.70
2023-02-13T12:50:29.423Z,91.20
2023-02-13T12:52:56.189Z,91.10
2023-02-13T12:55:22.904Z,91.00
2023-02-13T12:57:55.696Z,90.50
2023-02-13T13:00:32.066Z,90.30
2023-02-13T13:02:59.437Z,90.90
2023-02-13T13:05:45.307Z,91.60
2023-02-13T13:08:43.686Z,91.70
2023-02-13T13:11:10.486Z,91.50
2023-02-13T13:13:54.299Z,90.80
2023-02-13T13:16:31.001Z,91.00
2023-02-13T13:19:06.507Z,91.40
2023-02-13T13:21:47.779Z,91.30
2023-02-13T13:24:32.743Z,91.50
2023-02-13T13:27:00.670Z,91.60
2023-02-13T13:29:29.639Z,91.40
2023-02-13T13:31:59.881Z,90.80
2023-02-13T13:34:27.402Z,90.50
2023-02-13T13:37:03.296Z,90.50
2023-02-13T13:39:41.724Z,90.90
2023-02-13T13:42:13.905Z,90.80
2023-02-13T13:44:40.633Z,91.30
2023-02-13T13:47:19.643Z,91.90
2023-02-13T13:49:54.001Z,91.60
2023-02-13T13:52:37.745Z,91.30
2023-02-13T13:55:04.928Z,91.60
2023-02-13T13:57:34.495Z,91.50
2023-02-13T14:00:24.892Z,91.20
2023-02-13T14:03:11.621Z,91.00
2023-02-13T14:05:57.567Z,90.70
2023-02-13T14:08:39.580Z,90.70
2023-02-13T14:11:08.026Z,90.80
2023-02-13T14:13:39.030Z,90.50
2023-02-13T14:16:12.336Z,90.10
2023-02-13T14:18:45.312Z,87.90
2023-02-13T14:21:13.250Z,87.90
2023-02-13T14:23:42.760Z,89.40
2023-02-13T14:26:29.806Z,90.00
2023-02-13T14:28:56.666Z,89.10
2023-02-13T14:31:39.461Z,88.30
2023-02-13T14:34:12.199Z,89.20
2023-02-13T14:36:41.004Z,89.30
2023-02-13T14:39:18.416Z,88.10
2023-02-13T14:41:46.265Z,87.90
2023-02-13T14:44:18.267Z,87.00
2023-02-13T14:46:48.734Z,85.40
2023-02-13T14:49:19.946Z,85.70
2023-02-13T14:51:49.919Z,86.10
2023-02-13T14:54:25.944Z,85.90
2023-02-13T14:56:54.085Z,87.30
2023-02-13T14:59:23.762Z,87.70
2023-02-13T15:02:20.027Z,89.50
2023-02-13T15:04:48.978Z,88.60
2023-02-13T15:07:23.374Z,90.20
2023-02-13T15:09:52.821Z,90.70
2023-02-13T15:12:26.988Z,90.90
2023-02-13T15:14:53.781Z,91.10
2023-02-13T15:17:25.244Z,91.20
2023-02-13T15:19:54.189Z,91.40
2023-02-13T15:22:21.052Z,91.90
2023-02-13T15:24:49.596Z,91.60
2023-02-13T15:27:26.408Z,91.70
2023-02-13T15:29:54.363Z,91.80
2023-02-13T15:32:26.009Z,91.90
2023-02-13T15:34:52.887Z,91.90
2023-02-13T15:37:23.346Z,92.10
2023-02-13T15:39:50.104Z,92.10
2023-02-13T15:42:17.068Z,92.10
2023-02-13T15:44:45.808Z,92.20
2023-02-13T15:47:38.709Z,92.30
2023-02-13T15:50:14.554Z,92.30
2023-02-13T15:52:42.161Z,92.20
2023-02-13T15:55:19.066Z,92.30
2023-02-13T15:57:46.062Z,92.30
2023-02-13T16:00:17.057Z,92.30
2023-02-13T16:02:46.297Z,92.30
2023-02-13T16:05:14.530Z,92.30
2023-02-13T16:08:07.392Z,92.40
2023-02-13T16:10:34.968Z,92.50
2023-02-13T16:13:05.774Z,92.50
2023-02-13T16:15:34.234Z,92.50
2023-02-13T16:18:01.349Z,92.50
2023-02-13T16:20:29.014Z,92.50
2023-02-13T16:22:57.365Z,92.60
2023-02-13T16:25:27.027Z,92.70
2023-02-13T16:28:01.301Z,92.70
2023-02-13T16:30:33.379Z,92.70
2023-02-13T16:33:12.800Z,93.00
2023-02-13T16:35:44.228Z,92.90
2023-02-13T16:38:27.967Z,92.80
2023-02-13T16:40:56.225Z,92.70
2023-02-13T16:43:43.709Z,92.80
2023-02-13T16:46:19.472Z,92.90
2023-02-13T16:48:46.275Z,92.80
2023-02-13T16:51:13.346Z,92.90
2023-02-13T16:53:40.533Z,92.80
2023-02-13T16:56:11.509Z,92.80
2023-02-13T16:58:38.294Z,92.90
2023-02-13T17:01:05.508Z,92.80
2023-02-13T17:03:32.811Z,93.00
2023-02-13T17:06:03.399Z,92.70
2023-02-13T17:08:30.857Z,92.90
2023-02-13T17:11:18.079Z,93.00
2023-02-13T17:13:44.857Z,92.90
2023-02-13T17:16:11.636Z,92.80
2023-02-13T17:18:38.439Z,93.00
2023-02-13T17:21:05.754Z,92.90
2023-02-13T17:23:32.555Z,93.10
2023-02-13T17:25:59.466Z,93.10
2023-02-13T17:28:27.797Z,93.20
2023-02-13T17:30:56.848Z,93.20
2023-02-13T17:33:28.478Z,93.20
2023-02-13T17:35:55.335Z,93.10
2023-02-13T17:38:22.392Z,93.10
2023-02-13T17:40:49.495Z,93.20
2023-02-13T17:43:16.954Z,93.10
2023-02-13T17:45:43.772Z,93.20
2023-02-13T17:48:10.763Z,93.20
2023-02-13T17:50:38.222Z,93.20
2023-02-13T17:53:06.415Z,93.50
2023-02-13T17:55:34.623Z,93.10
2023-02-13T17:58:01.640Z,93.20
2023-02-13T18:00:30.293Z,93.20
2023-02-13T18:02:57.984Z,93.30
2023-02-13T18:05:24.795Z,93.30
2023-02-13T18:07:51.568Z,93.40
2023-02-13T18:10:20.500Z,93.30
2023-02-13T18:12:48.487Z,93.20
2023-02-13T18:15:15.419Z,93.20
2023-02-13T18:17:42.753Z,93.20
2023-02-13T18:20:12.260Z,93.30
2023-02-13T18:22:39.317Z,93.40
2023-02-13T18:25:06.419Z,93.40
2023-02-13T18:27:33.245Z,93.30
2023-02-13T18:30:00.127Z,93.50
2023-02-13T18:32:27.007Z,93.30
2023-02-13T18:34:53.789Z,93.40
2023-02-13T18:37:20.617Z,93.40
2023-02-13T18:39:47.599Z,93.40
2023-02-13T18:42:14.512Z,93.40
2023-02-13T18:44:41.594Z,93.50
2023-02-13T18:47:08.557Z,93.40
2023-02-13T18:49:35.459Z,93.50
2023-02-13T18:52:02.421Z,93.40
2023-02-13T18:54:29.474Z,93.60
2023-02-13T18:56:56.328Z,93.50
2023-02-13T18:59:23.372Z,93.60
2023-02-13T19:01:50.441Z,93.70
2023-02-13T19:04:17.364Z,93.60
2023-02-13T19:06:44.669Z,93.60
2023-02-13T19:09:11.796Z,93.50
2023-02-13T19:11:39.542Z,93.50
2023-02-13T19:14:06.844Z,93.50
2023-02-13T19:16:34.731Z,93.50
2023-02-13T19:19:03.443Z,93.70
2023-02-13T19:21:30.979Z,93.60
2023-02-13T19:23:57.890Z,93.60
2023-02-13T19:26:25.739Z,93.70
2023-02-13T19:28:52.766Z,93.60
2023-02-13T19:31:24.414Z,93.80
2023-02-13T19:33:51.542Z,93.70
2023-02-13T19:36:20.057Z,93.60
2023-02-13T19:38:47.238Z,93.80
2023-02-13T19:41:17.777Z,93.70
2023-02-13T19:43:53.471Z,93.60
2023-02-13T19:46:22.227Z,93.70
2023-02-13T19:48:49.355Z,93.70
2023-02-13T19:51:17.310Z,93.60
2023-02-13T19:53:44.163Z,93.60
2023-02-13T19:56:11.138Z,93.60
2023-02-13T19:58:38.411Z,93.70
2023-02-13T20:01:16.076Z,93.60
2023-02-13T20:03:43.117Z,93.90
2023-02-13T20:06:12.057Z,93.80
2023-02-13T20:08:38.841Z,93.80
2023-02-13T20:11:13.174Z,93.90
2023-02-13T20:13:40.341Z,93.90
2023-02-13T20:16:08.271Z,93.70
2023-02-13T20:18:35.821Z,93.80
2023-02-13T20:21:09.940Z,93.90
2023-02-13T20:23:36.822Z,93.80
2023-02-13T20:26:04.846Z,93.70
2023-02-13T20:28:31.664Z,94.00
2023-02-13T20:30:59.083Z,93.80
2023-02-13T20:33:26.667Z,93.90
2023-02-13T20:35:53.462Z,93.80
2023-02-13T20:38:20.281Z,93.70
2023-02-13T20:40:47.004Z,94.00
2023-02-13T20:43:13.724Z,93.80
2023-02-13T20:45:40.605Z,94.00
2023-02-13T20:48:07.391Z,93.90
2023-02-13T20:50:34.160Z,94.00
2023-02-13T20:53:00.955Z,94.10
2023-02-13T20:55:27.745Z,93.90
2023-02-13T20:57:54.514Z,93.80
2023-02-13T21:00:21.500Z,94.00
2023-02-13T21:02:48.326Z,93.90
2023-02-13T21:05:15.195Z,94.00
2023-02-13T21:07:42.391Z,94.00
2023-02-13T21:10:10.260Z,93.90
2023-02-13T21:12:36.999Z,94.00
2023-02-13T21:15:04.027Z,93.90
2023-02-13T21:17:31.026Z,94.00
2023-02-13T21:19:57.763Z,93.90
2023-02-13T21:22:24.744Z,94.00
2023-02-13T21:24:51.545Z,94.00
2023-02-13T21:27:18.354Z,94.20
2023-02-13T21:29:45.195Z,93.90
2023-02-13T21:32:12.193Z,94.00
2023-02-13T21:34:39.006Z,94.10
2023-02-13T21:37:05.954Z,94.20
2023-02-13T21:39:32.771Z,94.10
2023-02-13T21:41:59.848Z,94.20
2023-02-13T21:44:26.739Z,94.00
2023-02-13T21:46:53.553Z,93.90
2023-02-13T21:49:20.509Z,94.20
2023-02-13T21:51:47.342Z,94.20
2023-02-13T21:54:14.351Z,94.20
2023-02-13T21:56:41.861Z,94.20
2023-02-13T21:59:09.206Z,94.20
2023-02-13T22:01:36.790Z,94.10
2023-02-13T22:04:04.791Z,94.20
2023-02-13T22:06:32.128Z,94.10
2023-02-13T22:09:00.007Z,94.10
2023-02-13T22:11:27.112Z,94.30
2023-02-13T22:13:55.165Z,94.20
2023-02-13T22:16:22.036Z,94.30
2023-02-13T22:18:50.633Z,94.30
2023-02-13T22:21:19.025Z,94.30
2023-02-13T22:23:46.360Z,94.30
2023-02-13T22:26:16.155Z,94.30
2023-02-13T22:28:43.327Z,94.30
2023-02-13T22:31:10.570Z,94.20
2023-02-13T22:33:37.424Z,94.30
2023-02-13T22:36:04.552Z,94.30
2023-02-13T22:38:31.950Z,94.40
2023-02-13T22:41:04.200Z,94.40
2023-02-13T22:43:31.086Z,94.20
2023-02-13T22:46:02.418Z,94.20
2023-02-13T22:48:29.278Z,94.10
2023-02-13T22:50:56.221Z,94.50
2023-02-13T22:53:23.057Z,94.40
2023-02-13T22:55:49.801Z,94.40
2023-02-13T22:58:16.640Z,94.20
2023-02-13T23:00:43.436Z,94.40
2023-02-13T23:03:10.146Z,94.30
2023-02-13T23:05:38.804Z,94.20
2023-02-13T23:08:05.657Z,94.40
2023-02-13T23:10:32.386Z,94.40
2023-02-13T23:12:59.303Z,94.40
2023-02-13T23:15:26.085Z,94.20
2023-02-13T23:18:11.259Z,94.50
2023-02-13T23:20:38.479Z,94.50
2023-02-13T23:23:05.264Z,94.50
2023-02-13T23:25:32.135Z,94.40
2023-02-13T23:27:58.907Z,94.50
2023-02-13T23:30:25.762Z,94.50
2023-02-13T23:32:52.657Z,94.50
2023-02-13T23:35:19.406Z,94.60
2023-02-13T23:37:46.225Z,94.40
2023-02-13T23:40:14.301Z,94.50
2023-02-13T23:42:41.246Z,94.40
2023-02-13T23:45:08.211Z,94.60
2023-02-13T23:47:35.092Z,94.40
2023-02-13T23:50:01.924Z,94.50
2023-02-13T23:52:28.735Z,94.60
2023-02-13T23:54:55.555Z,94.60
2023-02-13T23:57:23.574Z,94.60
2023-02-13T23:59:51.199Z,94.50
